sensor_id;sensor_type;location;lat;lon;timestamp;P1;durP1;ratioP1;P2;durP2;ratioP2
64678;SDS011;51094;53.864;27.676;2023-07-13T00:01:06;0.73;;;0.73;;
64678;SDS011;51094;53.864;27.676;2023-07-13T00:03:51;0.82;;;0.82;;
64678;SDS011;51094;53.864;27.676;2023-07-13T00:06:18;0.77;;;0.77;;
64678;SDS011;51094;53.864;27.676;2023-07-13T00:08:47;0.75;;;0.75;;
64678;SDS011;51094;53.864;27.676;2023-07-13T00:11:16;0.70;;;0.70;;
64678;SDS011;51094;53.864;27.676;2023-07-13T00:13:43;0.80;;;0.80;;
64678;SDS011;51094;53.864;27.676;2023-07-13T00:16:11;0.70;;;0.70;;
64678;SDS011;51094;53.864;27.676;2023-07-13T00:18:40;0.70;;;0.70;;
64678;SDS011;51094;53.864;27.676;2023-07-13T00:21:07;0.73;;;0.73;;
64678;SDS011;51094;53.864;27.676;2023-07-13T00:23:35;0.80;;;0.80;;
64678;SDS011;51094;53.864;27.676;2023-07-13T00:26:04;0.65;;;0.65;;
64678;SDS011;51094;53.864;27.676;2023-07-13T00:28:34;0.90;;;0.90;;
64678;SDS011;51094;53.864;27.676;2023-07-13T00:31:02;0.80;;;0.80;;
64678;SDS011;51094;53.864;27.676;2023-07-13T00:33:31;0.70;;;0.70;;
64678;SDS011;51094;53.864;27.676;2023-07-13T00:35:58;0.90;;;0.90;;
64678;SDS011;51094;53.864;27.676;2023-07-13T00:38:25;0.80;;;0.80;;
64678;SDS011;51094;53.864;27.676;2023-07-13T00:40:53;0.80;;;0.80;;
64678;SDS011;51094;53.864;27.676;2023-07-13T00:43:21;0.80;;;0.80;;
64678;SDS011;51094;53.864;27.676;2023-07-13T00:48:17;0.80;;;0.80;;
64678;SDS011;51094;53.864;27.676;2023-07-13T00:50:48;0.90;;;0.90;;
64678;SDS011;51094;53.864;27.676;2023-07-13T00:53:18;0.98;;;0.98;;
64678;SDS011;51094;53.864;27.676;2023-07-13T00:55:49;0.95;;;0.95;;
64678;SDS011;51094;53.864;27.676;2023-07-13T00:58:18;0.90;;;0.90;;
64678;SDS011;51094;53.864;27.676;2023-07-13T01:00:45;1.20;;;1.20;;
64678;SDS011;51094;53.864;27.676;2023-07-13T01:03:15;1.00;;;1.00;;
64678;SDS011;51094;53.864;27.676;2023-07-13T01:05:42;1.00;;;1.00;;
64678;SDS011;51094;53.864;27.676;2023-07-13T01:08:10;1.00;;;1.00;;
64678;SDS011;51094;53.864;27.676;2023-07-13T01:10:37;0.88;;;0.88;;
64678;SDS011;51094;53.864;27.676;2023-07-13T01:13:06;0.90;;;0.90;;
64678;SDS011;51094;53.864;27.676;2023-07-13T01:15:40;0.90;;;0.90;;
64678;SDS011;51094;53.864;27.676;2023-07-13T01:18:15;1.10;;;1.10;;
64678;SDS011;51094;53.864;27.676;2023-07-13T01:20:58;1.00;;;1.00;;
64678;SDS011;51094;53.864;27.676;2023-07-13T01:23:27;1.00;;;1.00;;
64678;SDS011;51094;53.864;27.676;2023-07-13T01:25:56;0.80;;;0.80;;
64678;SDS011;51094;53.864;27.676;2023-07-13T01:28:25;0.80;;;0.80;;
64678;SDS011;51094;53.864;27.676;2023-07-13T01:30:57;0.80;;;0.80;;
64678;SDS011;51094;53.864;27.676;2023-07-13T01:33:25;0.90;;;0.90;;
64678;SDS011;51094;53.864;27.676;2023-07-13T01:35:53;0.80;;;0.80;;
64678;SDS011;51094;53.864;27.676;2023-07-13T01:38:24;0.70;;;0.70;;
64678;SDS011;51094;53.864;27.676;2023-07-13T01:40:51;0.98;;;0.98;;
64678;SDS011;51094;53.864;27.676;2023-07-13T01:43:19;1.08;;;1.08;;
64678;SDS011;51094;53.864;27.676;2023-07-13T01:45:46;0.80;;;0.80;;
64678;SDS011;51094;53.864;27.676;2023-07-13T01:48:13;0.75;;;0.75;;
64678;SDS011;51094;53.864;27.676;2023-07-13T01:50:41;1.00;;;1.00;;
64678;SDS011;51094;53.864;27.676;2023-07-13T01:53:08;1.00;;;1.00;;
64678;SDS011;51094;53.864;27.676;2023-07-13T01:55:35;1.10;;;1.10;;
64678;SDS011;51094;53.864;27.676;2023-07-13T01:58:04;1.00;;;1.00;;
64678;SDS011;51094;53.864;27.676;2023-07-13T02:00:31;1.10;;;1.10;;
64678;SDS011;51094;53.864;27.676;2023-07-13T02:03:01;1.35;;;1.35;;
64678;SDS011;51094;53.864;27.676;2023-07-13T02:05:29;1.30;;;1.30;;
64678;SDS011;51094;53.864;27.676;2023-07-13T02:07:57;1.15;;;1.15;;
64678;SDS011;51094;53.864;27.676;2023-07-13T02:10:25;1.25;;;1.25;;
64678;SDS011;51094;53.864;27.676;2023-07-13T02:12:52;1.10;;;1.10;;
64678;SDS011;51094;53.864;27.676;2023-07-13T02:15:20;0.90;;;0.90;;
64678;SDS011;51094;53.864;27.676;2023-07-13T02:17:47;1.00;;;1.00;;
64678;SDS011;51094;53.864;27.676;2023-07-13T02:20:14;1.00;;;1.00;;
64678;SDS011;51094;53.864;27.676;2023-07-13T02:22:41;0.98;;;0.98;;
64678;SDS011;51094;53.864;27.676;2023-07-13T02:25:08;0.77;;;0.77;;
64678;SDS011;51094;53.864;27.676;2023-07-13T02:27:36;0.85;;;0.85;;
64678;SDS011;51094;53.864;27.676;2023-07-13T02:30:03;0.98;;;0.98;;
64678;SDS011;51094;53.864;27.676;2023-07-13T02:32:30;0.90;;;0.90;;
64678;SDS011;51094;53.864;27.676;2023-07-13T02:34:57;0.90;;;0.90;;
64678;SDS011;51094;53.864;27.676;2023-07-13T02:37:24;0.90;;;0.90;;
64678;SDS011;51094;53.864;27.676;2023-07-13T02:39:51;1.00;;;1.00;;
64678;SDS011;51094;53.864;27.676;2023-07-13T02:42:18;0.90;;;0.90;;
64678;SDS011;51094;53.864;27.676;2023-07-13T02:44:45;1.15;;;1.15;;
64678;SDS011;51094;53.864;27.676;2023-07-13T02:47:12;0.90;;;0.90;;
64678;SDS011;51094;53.864;27.676;2023-07-13T02:49:40;1.40;;;1.40;;
64678;SDS011;51094;53.864;27.676;2023-07-13T02:52:07;1.40;;;1.40;;
64678;SDS011;51094;53.864;27.676;2023-07-13T02:54:34;1.10;;;1.10;;
64678;SDS011;51094;53.864;27.676;2023-07-13T02:57:01;1.10;;;1.10;;
64678;SDS011;51094;53.864;27.676;2023-07-13T02:59:28;1.05;;;1.05;;
64678;SDS011;51094;53.864;27.676;2023-07-13T03:01:55;1.08;;;1.05;;
64678;SDS011;51094;53.864;27.676;2023-07-13T03:04:22;1.10;;;1.10;;
64678;SDS011;51094;53.864;27.676;2023-07-13T03:06:50;1.05;;;1.05;;
64678;SDS011;51094;53.864;27.676;2023-07-13T03:09:18;1.20;;;1.20;;
64678;SDS011;51094;53.864;27.676;2023-07-13T03:11:54;1.15;;;1.15;;
64678;SDS011;51094;53.864;27.676;2023-07-13T03:14:28;0.90;;;0.90;;
64678;SDS011;51094;53.864;27.676;2023-07-13T03:16:55;1.00;;;1.00;;
64678;SDS011;51094;53.864;27.676;2023-07-13T03:19:25;0.90;;;0.90;;
64678;SDS011;51094;53.864;27.676;2023-07-13T03:21:53;1.00;;;1.00;;
64678;SDS011;51094;53.864;27.676;2023-07-13T03:24:21;1.10;;;1.10;;
64678;SDS011;51094;53.864;27.676;2023-07-13T03:29:18;0.90;;;0.90;;
64678;SDS011;51094;53.864;27.676;2023-07-13T03:31:45;0.88;;;0.88;;
64678;SDS011;51094;53.864;27.676;2023-07-13T03:34:13;0.88;;;0.88;;
64678;SDS011;51094;53.864;27.676;2023-07-13T03:36:41;1.10;;;1.10;;
64678;SDS011;51094;53.864;27.676;2023-07-13T03:39:10;1.05;;;1.05;;
64678;SDS011;51094;53.864;27.676;2023-07-13T03:41:49;0.98;;;0.98;;
64678;SDS011;51094;53.864;27.676;2023-07-13T03:44:16;1.10;;;1.10;;
64678;SDS011;51094;53.864;27.676;2023-07-13T03:46:48;1.00;;;1.00;;
64678;SDS011;51094;53.864;27.676;2023-07-13T03:49:15;0.80;;;0.80;;
64678;SDS011;51094;53.864;27.676;2023-07-13T03:51:43;1.10;;;1.10;;
64678;SDS011;51094;53.864;27.676;2023-07-13T03:54:10;1.10;;;1.10;;
64678;SDS011;51094;53.864;27.676;2023-07-13T03:56:37;1.10;;;1.10;;
64678;SDS011;51094;53.864;27.676;2023-07-13T03:59:06;0.90;;;0.90;;
64678;SDS011;51094;53.864;27.676;2023-07-13T04:01:33;1.15;;;1.15;;
64678;SDS011;51094;53.864;27.676;2023-07-13T04:04:01;1.20;;;1.20;;
64678;SDS011;51094;53.864;27.676;2023-07-13T04:06:30;1.30;;;1.30;;
64678;SDS011;51094;53.864;27.676;2023-07-13T04:08:59;1.20;;;1.20;;
64678;SDS011;51094;53.864;27.676;2023-07-13T04:11:28;1.10;;;1.10;;
64678;SDS011;51094;53.864;27.676;2023-07-13T04:13:59;1.25;;;1.25;;
64678;SDS011;51094;53.864;27.676;2023-07-13T04:16:26;1.23;;;1.23;;
64678;SDS011;51094;53.864;27.676;2023-07-13T04:18:54;1.20;;;1.20;;
64678;SDS011;51094;53.864;27.676;2023-07-13T04:21:27;1.30;;;1.30;;
64678;SDS011;51094;53.864;27.676;2023-07-13T04:23:56;1.20;;;1.20;;
64678;SDS011;51094;53.864;27.676;2023-07-13T04:26:23;1.45;;;1.45;;
64678;SDS011;51094;53.864;27.676;2023-07-13T04:28:51;1.40;;;1.40;;
64678;SDS011;51094;53.864;27.676;2023-07-13T04:31:19;1.15;;;1.15;;
64678;SDS011;51094;53.864;27.676;2023-07-13T04:33:47;1.48;;;1.48;;
64678;SDS011;51094;53.864;27.676;2023-07-13T04:36:15;1.23;;;1.23;;
64678;SDS011;51094;53.864;27.676;2023-07-13T04:38:43;1.30;;;1.30;;
64678;SDS011;51094;53.864;27.676;2023-07-13T04:41:10;1.48;;;1.48;;
64678;SDS011;51094;53.864;27.676;2023-07-13T04:43:37;1.50;;;1.50;;
64678;SDS011;51094;53.864;27.676;2023-07-13T04:46:09;1.30;;;1.30;;
64678;SDS011;51094;53.864;27.676;2023-07-13T04:48:39;1.30;;;1.30;;
64678;SDS011;51094;53.864;27.676;2023-07-13T04:51:06;1.48;;;1.48;;
64678;SDS011;51094;53.864;27.676;2023-07-13T04:53:33;1.40;;;1.40;;
64678;SDS011;51094;53.864;27.676;2023-07-13T04:56:02;1.48;;;1.48;;
64678;SDS011;51094;53.864;27.676;2023-07-13T04:58:30;1.30;;;1.30;;
64678;SDS011;51094;53.864;27.676;2023-07-13T05:01:01;1.60;;;1.60;;
64678;SDS011;51094;53.864;27.676;2023-07-13T05:03:29;1.60;;;1.60;;
64678;SDS011;51094;53.864;27.676;2023-07-13T05:05:58;1.77;;;1.77;;
64678;SDS011;51094;53.864;27.676;2023-07-13T05:10:54;1.60;;;1.60;;
64678;SDS011;51094;53.864;27.676;2023-07-13T05:13:22;1.55;;;1.55;;
64678;SDS011;51094;53.864;27.676;2023-07-13T05:15:57;1.40;;;1.40;;
64678;SDS011;51094;53.864;27.676;2023-07-13T05:18:28;1.50;;;1.50;;
64678;SDS011;51094;53.864;27.676;2023-07-13T05:20:57;1.70;;;1.70;;
64678;SDS011;51094;53.864;27.676;2023-07-13T05:23:26;1.38;;;1.38;;
64678;SDS011;51094;53.864;27.676;2023-07-13T05:25:53;1.65;;;1.65;;
64678;SDS011;51094;53.864;27.676;2023-07-13T05:28:21;1.30;;;1.30;;
64678;SDS011;51094;53.864;27.676;2023-07-13T05:30:48;1.60;;;1.60;;
64678;SDS011;51094;53.864;27.676;2023-07-13T05:33:16;1.70;;;1.70;;
64678;SDS011;51094;53.864;27.676;2023-07-13T05:35:43;1.80;;;1.80;;
64678;SDS011;51094;53.864;27.676;2023-07-13T05:38:11;1.67;;;1.67;;
64678;SDS011;51094;53.864;27.676;2023-07-13T05:40:38;2.00;;;2.00;;
64678;SDS011;51094;53.864;27.676;2023-07-13T05:43:05;1.55;;;1.55;;
64678;SDS011;51094;53.864;27.676;2023-07-13T05:45:32;1.50;;;1.50;;
64678;SDS011;51094;53.864;27.676;2023-07-13T05:47:59;1.50;;;1.50;;
64678;SDS011;51094;53.864;27.676;2023-07-13T05:50:26;1.70;;;1.70;;
64678;SDS011;51094;53.864;27.676;2023-07-13T05:52:53;2.10;;;2.10;;
64678;SDS011;51094;53.864;27.676;2023-07-13T05:55:20;1.70;;;1.70;;
64678;SDS011;51094;53.864;27.676;2023-07-13T05:57:47;1.90;;;1.90;;
64678;SDS011;51094;53.864;27.676;2023-07-13T06:00:14;2.45;;;2.35;;
64678;SDS011;51094;53.864;27.676;2023-07-13T06:02:42;2.33;;;2.33;;
64678;SDS011;51094;53.864;27.676;2023-07-13T06:05:09;3.38;;;3.28;;
64678;SDS011;51094;53.864;27.676;2023-07-13T06:07:37;3.05;;;2.95;;
64678;SDS011;51094;53.864;27.676;2023-07-13T06:10:04;2.55;;;2.50;;
64678;SDS011;51094;53.864;27.676;2023-07-13T06:12:32;3.40;;;3.30;;
64678;SDS011;51094;53.864;27.676;2023-07-13T06:14:59;3.40;;;3.30;;
64678;SDS011;51094;53.864;27.676;2023-07-13T06:17:25;3.72;;;3.58;;
64678;SDS011;51094;53.864;27.676;2023-07-13T06:19:53;3.33;;;3.17;;
64678;SDS011;51094;53.864;27.676;2023-07-13T06:22:19;3.50;;;3.30;;
64678;SDS011;51094;53.864;27.676;2023-07-13T06:24:47;3.35;;;3.25;;
64678;SDS011;51094;53.864;27.676;2023-07-13T06:27:14;2.78;;;2.67;;
64678;SDS011;51094;53.864;27.676;2023-07-13T06:29:44;4.35;;;4.25;;
64678;SDS011;51094;53.864;27.676;2023-07-13T06:32:12;3.35;;;3.25;;
64678;SDS011;51094;53.864;27.676;2023-07-13T06:34:39;2.83;;;2.72;;
64678;SDS011;51094;53.864;27.676;2023-07-13T06:37:09;2.85;;;2.75;;
64678;SDS011;51094;53.864;27.676;2023-07-13T06:39:36;2.92;;;2.83;;
64678;SDS011;51094;53.864;27.676;2023-07-13T06:42:03;4.03;;;3.83;;
64678;SDS011;51094;53.864;27.676;2023-07-13T06:44:31;3.40;;;3.30;;
64678;SDS011;51094;53.864;27.676;2023-07-13T06:46:58;4.75;;;4.65;;
64678;SDS011;51094;53.864;27.676;2023-07-13T06:49:26;3.83;;;3.72;;
64678;SDS011;51094;53.864;27.676;2023-07-13T06:51:53;2.65;;;2.65;;
64678;SDS011;51094;53.864;27.676;2023-07-13T06:54:20;3.22;;;3.22;;
64678;SDS011;51094;53.864;27.676;2023-07-13T06:57:05;3.70;;;3.60;;
64678;SDS011;51094;53.864;27.676;2023-07-13T06:59:35;4.40;;;4.30;;
64678;SDS011;51094;53.864;27.676;2023-07-13T07:02:03;3.50;;;3.40;;
64678;SDS011;51094;53.864;27.676;2023-07-13T07:04:31;2.60;;;2.60;;
64678;SDS011;51094;53.864;27.676;2023-07-13T07:06:58;2.63;;;2.60;;
64678;SDS011;51094;53.864;27.676;2023-07-13T07:09:25;2.20;;;2.20;;
64678;SDS011;51094;53.864;27.676;2023-07-13T07:11:52;2.30;;;2.30;;
64678;SDS011;51094;53.864;27.676;2023-07-13T07:14:30;2.30;;;2.30;;
64678;SDS011;51094;53.864;27.676;2023-07-13T07:16:57;2.28;;;2.28;;
64678;SDS011;51094;53.864;27.676;2023-07-13T07:19:27;2.70;;;2.67;;
64678;SDS011;51094;53.864;27.676;2023-07-13T07:21:56;3.90;;;3.80;;
64678;SDS011;51094;53.864;27.676;2023-07-13T07:24:23;4.60;;;4.50;;
64678;SDS011;51094;53.864;27.676;2023-07-13T07:26:50;3.17;;;3.08;;
64678;SDS011;51094;53.864;27.676;2023-07-13T07:29:21;3.10;;;3.00;;
64678;SDS011;51094;53.864;27.676;2023-07-13T07:31:52;3.30;;;3.20;;
64678;SDS011;51094;53.864;27.676;2023-07-13T07:34:22;2.20;;;2.20;;
64678;SDS011;51094;53.864;27.676;2023-07-13T07:36:49;2.90;;;2.80;;
64678;SDS011;51094;53.864;27.676;2023-07-13T07:39:19;3.20;;;3.10;;
64678;SDS011;51094;53.864;27.676;2023-07-13T07:41:46;2.75;;;2.65;;
64678;SDS011;51094;53.864;27.676;2023-07-13T07:44:16;2.53;;;2.53;;
64678;SDS011;51094;53.864;27.676;2023-07-13T07:46:46;2.17;;;2.17;;
64678;SDS011;51094;53.864;27.676;2023-07-13T07:49:17;2.15;;;2.15;;
64678;SDS011;51094;53.864;27.676;2023-07-13T07:51:44;3.22;;;3.13;;
64678;SDS011;51094;53.864;27.676;2023-07-13T07:54:11;3.70;;;3.60;;
64678;SDS011;51094;53.864;27.676;2023-07-13T07:56:49;4.10;;;4.00;;
64678;SDS011;51094;53.864;27.676;2023-07-13T07:59:19;2.92;;;2.83;;
64678;SDS011;51094;53.864;27.676;2023-07-13T08:01:49;2.42;;;2.42;;
64678;SDS011;51094;53.864;27.676;2023-07-13T08:04:20;2.90;;;2.80;;
64678;SDS011;51094;53.864;27.676;2023-07-13T08:06:50;2.97;;;2.88;;
64678;SDS011;51094;53.864;27.676;2023-07-13T08:09:17;3.45;;;3.35;;
64678;SDS011;51094;53.864;27.676;2023-07-13T08:11:44;2.85;;;2.75;;
64678;SDS011;51094;53.864;27.676;2023-07-13T08:14:14;2.50;;;2.40;;
64678;SDS011;51094;53.864;27.676;2023-07-13T08:16:41;2.20;;;2.20;;
64678;SDS011;51094;53.864;27.676;2023-07-13T08:19:08;2.25;;;2.25;;
64678;SDS011;51094;53.864;27.676;2023-07-13T08:21:35;2.20;;;2.20;;
64678;SDS011;51094;53.864;27.676;2023-07-13T08:24:03;2.17;;;2.08;;
64678;SDS011;51094;53.864;27.676;2023-07-13T08:26:30;1.90;;;1.90;;
64678;SDS011;51094;53.864;27.676;2023-07-13T08:28:57;2.70;;;2.60;;
64678;SDS011;51094;53.864;27.676;2023-07-13T08:31:25;4.00;;;3.90;;
64678;SDS011;51094;53.864;27.676;2023-07-13T08:33:52;2.60;;;2.60;;
64678;SDS011;51094;53.864;27.676;2023-07-13T08:36:19;2.30;;;2.30;;
64678;SDS011;51094;53.864;27.676;2023-07-13T08:38:46;2.30;;;2.30;;
64678;SDS011;51094;53.864;27.676;2023-07-13T08:41:14;2.60;;;2.60;;
64678;SDS011;51094;53.864;27.676;2023-07-13T08:43:45;2.00;;;2.00;;
64678;SDS011;51094;53.864;27.676;2023-07-13T08:46:19;2.20;;;2.20;;
64678;SDS011;51094;53.864;27.676;2023-07-13T08:48:56;2.17;;;2.17;;
64678;SDS011;51094;53.864;27.676;2023-07-13T08:56:54;2.30;;;2.30;;
64678;SDS011;51094;53.864;27.676;2023-07-13T08:59:24;2.20;;;2.20;;
64678;SDS011;51094;53.864;27.676;2023-07-13T09:07:33;2.10;;;2.10;;
64678;SDS011;51094;53.864;27.676;2023-07-13T09:10:19;2.10;;;2.10;;
64678;SDS011;51094;53.864;27.676;2023-07-13T09:16:00;2.45;;;2.40;;
64678;SDS011;51094;53.864;27.676;2023-07-13T09:18:41;2.60;;;2.60;;
64678;SDS011;51094;53.864;27.676;2023-07-13T09:21:12;2.20;;;2.20;;
64678;SDS011;51094;53.864;27.676;2023-07-13T09:23:41;2.10;;;2.10;;
64678;SDS011;51094;53.864;27.676;2023-07-13T09:26:13;1.90;;;1.90;;
64678;SDS011;51094;53.864;27.676;2023-07-13T09:28:45;1.88;;;1.88;;
64678;SDS011;51094;53.864;27.676;2023-07-13T09:31:16;1.80;;;1.80;;
64678;SDS011;51094;53.864;27.676;2023-07-13T09:33:48;1.50;;;1.50;;
64678;SDS011;51094;53.864;27.676;2023-07-13T09:36:19;1.88;;;1.88;;
64678;SDS011;51094;53.864;27.676;2023-07-13T09:38:54;1.60;;;1.60;;
64678;SDS011;51094;53.864;27.676;2023-07-13T09:41:35;1.70;;;1.70;;
64678;SDS011;51094;53.864;27.676;2023-07-13T09:44:16;1.90;;;1.90;;
64678;SDS011;51094;53.864;27.676;2023-07-13T09:46:46;1.80;;;1.80;;
64678;SDS011;51094;53.864;27.676;2023-07-13T09:49:24;1.95;;;1.95;;
64678;SDS011;51094;53.864;27.676;2023-07-13T09:52:00;1.88;;;1.88;;
64678;SDS011;51094;53.864;27.676;2023-07-13T09:54:33;1.80;;;1.80;;
64678;SDS011;51094;53.864;27.676;2023-07-13T09:57:01;2.08;;;2.08;;
64678;SDS011;51094;53.864;27.676;2023-07-13T09:59:33;2.55;;;2.55;;
64678;SDS011;51094;53.864;27.676;2023-07-13T10:04:57;2.05;;;2.05;;
64678;SDS011;51094;53.864;27.676;2023-07-13T10:07:26;1.67;;;1.67;;
64678;SDS011;51094;53.864;27.676;2023-07-13T10:09:59;1.40;;;1.40;;
64678;SDS011;51094;53.864;27.676;2023-07-13T10:12:29;1.50;;;1.50;;
64678;SDS011;51094;53.864;27.676;2023-07-13T10:15:02;1.33;;;1.33;;
64678;SDS011;51094;53.864;27.676;2023-07-13T10:17:49;1.20;;;1.20;;
64678;SDS011;51094;53.864;27.676;2023-07-13T10:20:17;1.00;;;1.00;;
64678;SDS011;51094;53.864;27.676;2023-07-13T10:23:11;1.20;;;1.20;;
64678;SDS011;51094;53.864;27.676;2023-07-13T10:25:41;1.20;;;1.20;;
64678;SDS011;51094;53.864;27.676;2023-07-13T10:28:19;1.10;;;1.10;;
64678;SDS011;51094;53.864;27.676;2023-07-13T10:31:02;1.00;;;1.00;;
64678;SDS011;51094;53.864;27.676;2023-07-13T10:33:39;0.90;;;0.90;;
64678;SDS011;51094;53.864;27.676;2023-07-13T10:36:18;0.80;;;0.80;;
64678;SDS011;51094;53.864;27.676;2023-07-13T10:38:55;0.90;;;0.90;;
64678;SDS011;51094;53.864;27.676;2023-07-13T10:41:25;0.90;;;0.90;;
64678;SDS011;51094;53.864;27.676;2023-07-13T10:43:55;0.93;;;0.93;;
64678;SDS011;51094;53.864;27.676;2023-07-13T10:46:25;0.90;;;0.90;;
64678;SDS011;51094;53.864;27.676;2023-07-13T10:48:58;1.00;;;1.00;;
64678;SDS011;51094;53.864;27.676;2023-07-13T10:51:29;1.00;;;1.00;;
64678;SDS011;51094;53.864;27.676;2023-07-13T10:56:40;1.00;;;1.00;;
64678;SDS011;51094;53.864;27.676;2023-07-13T11:04:41;1.00;;;1.00;;
64678;SDS011;51094;53.864;27.676;2023-07-13T11:07:21;1.00;;;1.00;;
64678;SDS011;51094;53.864;27.676;2023-07-13T11:09:56;1.00;;;1.00;;
64678;SDS011;51094;53.864;27.676;2023-07-13T11:12:27;0.90;;;0.90;;
64678;SDS011;51094;53.864;27.676;2023-07-13T11:15:14;0.90;;;0.90;;
64678;SDS011;51094;53.864;27.676;2023-07-13T11:17:59;1.10;;;1.10;;
64678;SDS011;51094;53.864;27.676;2023-07-13T11:20:31;0.93;;;0.93;;
64678;SDS011;51094;53.864;27.676;2023-07-13T11:23:17;1.20;;;1.20;;
64678;SDS011;51094;53.864;27.676;2023-07-13T11:25:47;1.05;;;1.05;;
64678;SDS011;51094;53.864;27.676;2023-07-13T11:28:18;1.10;;;1.10;;
64678;SDS011;51094;53.864;27.676;2023-07-13T11:33:23;1.08;;;1.08;;
64678;SDS011;51094;53.864;27.676;2023-07-13T11:36:03;1.10;;;1.10;;
64678;SDS011;51094;53.864;27.676;2023-07-13T11:41:15;0.90;;;0.90;;
64678;SDS011;51094;53.864;27.676;2023-07-13T11:43:48;0.90;;;0.90;;
64678;SDS011;51094;53.864;27.676;2023-07-13T11:46:24;0.73;;;0.73;;
64678;SDS011;51094;53.864;27.676;2023-07-13T11:48:53;0.93;;;0.93;;
64678;SDS011;51094;53.864;27.676;2023-07-13T11:51:22;0.90;;;0.90;;
64678;SDS011;51094;53.864;27.676;2023-07-13T11:53:53;0.90;;;0.90;;
64678;SDS011;51094;53.864;27.676;2023-07-13T11:56:24;1.00;;;1.00;;
64678;SDS011;51094;53.864;27.676;2023-07-13T11:58:53;0.80;;;0.80;;
64678;SDS011;51094;53.864;27.676;2023-07-13T12:01:29;0.90;;;0.90;;
64678;SDS011;51094;53.864;27.676;2023-07-13T12:04:08;1.10;;;1.10;;
64678;SDS011;51094;53.864;27.676;2023-07-13T12:06:56;0.90;;;0.90;;
64678;SDS011;51094;53.864;27.676;2023-07-13T12:09:32;1.00;;;1.00;;
64678;SDS011;51094;53.864;27.676;2023-07-13T12:12:02;0.90;;;0.90;;
64678;SDS011;51094;53.864;27.676;2023-07-13T12:14:33;0.90;;;0.90;;
64678;SDS011;51094;53.864;27.676;2023-07-13T12:17:00;1.00;;;1.00;;
64678;SDS011;51094;53.864;27.676;2023-07-13T12:19:27;1.10;;;1.10;;
64678;SDS011;51094;53.864;27.676;2023-07-13T12:21:56;0.82;;;0.82;;
64678;SDS011;51094;53.864;27.676;2023-07-13T12:24:25;0.90;;;0.90;;
64678;SDS011;51094;53.864;27.676;2023-07-13T12:26:54;1.00;;;1.00;;
64678;SDS011;51094;53.864;27.676;2023-07-13T12:29:29;1.00;;;1.00;;
64678;SDS011;51094;53.864;27.676;2023-07-13T12:31:57;0.90;;;0.90;;
64678;SDS011;51094;53.864;27.676;2023-07-13T12:34:26;1.00;;;1.00;;
64678;SDS011;51094;53.864;27.676;2023-07-13T12:36:54;0.90;;;0.90;;
64678;SDS011;51094;53.864;27.676;2023-07-13T12:39:33;0.80;;;0.80;;
64678;SDS011;51094;53.864;27.676;2023-07-13T12:44:51;0.60;;;0.60;;
64678;SDS011;51094;53.864;27.676;2023-07-13T12:47:20;0.60;;;0.60;;
64678;SDS011;51094;53.864;27.676;2023-07-13T12:49:50;0.95;;;0.95;;
64678;SDS011;51094;53.864;27.676;2023-07-13T12:52:22;1.33;;;1.33;;
64678;SDS011;51094;53.864;27.676;2023-07-13T12:54:57;1.10;;;1.10;;
64678;SDS011;51094;53.864;27.676;2023-07-13T12:57:55;1.10;;;1.10;;
64678;SDS011;51094;53.864;27.676;2023-07-13T13:03:05;0.80;;;0.80;;
64678;SDS011;51094;53.864;27.676;2023-07-13T13:06:01;0.60;;;0.60;;
64678;SDS011;51094;53.864;27.676;2023-07-13T13:08:34;0.70;;;0.70;;
64678;SDS011;51094;53.864;27.676;2023-07-13T13:11:02;1.00;;;1.00;;
64678;SDS011;51094;53.864;27.676;2023-07-13T13:13:29;0.80;;;0.80;;
64678;SDS011;51094;53.864;27.676;2023-07-13T13:16:00;0.70;;;0.70;;
64678;SDS011;51094;53.864;27.676;2023-07-13T13:18:28;1.00;;;1.00;;
64678;SDS011;51094;53.864;27.676;2023-07-13T13:20:57;1.15;;;1.15;;
64678;SDS011;51094;53.864;27.676;2023-07-13T13:23:24;0.80;;;0.80;;
64678;SDS011;51094;53.864;27.676;2023-07-13T13:25:54;0.60;;;0.60;;
64678;SDS011;51094;53.864;27.676;2023-07-13T13:28:21;0.70;;;0.70;;
64678;SDS011;51094;53.864;27.676;2023-07-13T13:30:48;0.65;;;0.65;;
64678;SDS011;51094;53.864;27.676;2023-07-13T13:35:45;1.10;;;1.10;;
64678;SDS011;51094;53.864;27.676;2023-07-13T13:38:12;0.70;;;0.70;;
64678;SDS011;51094;53.864;27.676;2023-07-13T13:40:43;0.75;;;0.75;;
64678;SDS011;51094;53.864;27.676;2023-07-13T13:43:22;0.80;;;0.80;;
64678;SDS011;51094;53.864;27.676;2023-07-13T13:45:55;0.73;;;0.73;;
64678;SDS011;51094;53.864;27.676;2023-07-13T13:48:31;0.70;;;0.70;;
64678;SDS011;51094;53.864;27.676;2023-07-13T13:51:00;0.77;;;0.77;;
64678;SDS011;51094;53.864;27.676;2023-07-13T13:53:30;0.98;;;0.98;;
64678;SDS011;51094;53.864;27.676;2023-07-13T13:55:57;0.80;;;0.80;;
64678;SDS011;51094;53.864;27.676;2023-07-13T13:58:26;0.70;;;0.70;;
64678;SDS011;51094;53.864;27.676;2023-07-13T14:00:53;0.70;;;0.70;;
64678;SDS011;51094;53.864;27.676;2023-07-13T14:03:20;0.80;;;0.80;;
64678;SDS011;51094;53.864;27.676;2023-07-13T14:05:48;0.70;;;0.70;;
64678;SDS011;51094;53.864;27.676;2023-07-13T14:08:17;0.60;;;0.60;;
64678;SDS011;51094;53.864;27.676;2023-07-13T14:10:46;0.70;;;0.70;;
64678;SDS011;51094;53.864;27.676;2023-07-13T14:13:16;0.75;;;0.75;;
64678;SDS011;51094;53.864;27.676;2023-07-13T14:15:46;0.77;;;0.77;;
64678;SDS011;51094;53.864;27.676;2023-07-13T14:18:14;1.30;;;1.30;;
64678;SDS011;51094;53.864;27.676;2023-07-13T14:20:45;1.17;;;1.17;;
64678;SDS011;51094;53.864;27.676;2023-07-13T14:23:14;1.05;;;1.05;;
64678;SDS011;51094;53.864;27.676;2023-07-13T14:25:42;0.80;;;0.80;;
64678;SDS011;51094;53.864;27.676;2023-07-13T14:28:20;0.63;;;0.63;;
64678;SDS011;51094;53.864;27.676;2023-07-13T14:30:50;0.50;;;0.50;;
64678;SDS011;51094;53.864;27.676;2023-07-13T14:33:17;0.70;;;0.70;;
64678;SDS011;51094;53.864;27.676;2023-07-13T14:35:45;0.70;;;0.70;;
64678;SDS011;51094;53.864;27.676;2023-07-13T14:38:16;0.70;;;0.70;;
64678;SDS011;51094;53.864;27.676;2023-07-13T14:40:44;0.70;;;0.70;;
64678;SDS011;51094;53.864;27.676;2023-07-13T14:43:15;0.73;;;0.73;;
64678;SDS011;51094;53.864;27.676;2023-07-13T14:45:44;1.02;;;1.02;;
64678;SDS011;51094;53.864;27.676;2023-07-13T14:48:19;0.70;;;0.70;;
64678;SDS011;51094;53.864;27.676;2023-07-13T14:50:53;0.60;;;0.60;;
64678;SDS011;51094;53.864;27.676;2023-07-13T14:53:24;0.70;;;0.70;;
64678;SDS011;51094;53.864;27.676;2023-07-13T14:55:52;0.70;;;0.70;;
64678;SDS011;51094;53.864;27.676;2023-07-13T14:58:19;0.70;;;0.70;;
64678;SDS011;51094;53.864;27.676;2023-07-13T15:00:46;0.60;;;0.60;;
64678;SDS011;51094;53.864;27.676;2023-07-13T15:03:19;0.60;;;0.60;;
64678;SDS011;51094;53.864;27.676;2023-07-13T15:05:54;0.63;;;0.63;;
64678;SDS011;51094;53.864;27.676;2023-07-13T15:08:21;0.60;;;0.60;;
64678;SDS011;51094;53.864;27.676;2023-07-13T15:10:48;0.50;;;0.50;;
64678;SDS011;51094;53.864;27.676;2023-07-13T15:13:16;0.90;;;0.90;;
64678;SDS011;51094;53.864;27.676;2023-07-13T15:15:47;0.60;;;0.60;;
64678;SDS011;51094;53.864;27.676;2023-07-13T15:18:18;0.60;;;0.60;;
64678;SDS011;51094;53.864;27.676;2023-07-13T15:20:48;0.60;;;0.60;;
64678;SDS011;51094;53.864;27.676;2023-07-13T15:23:16;0.60;;;0.60;;
64678;SDS011;51094;53.864;27.676;2023-07-13T15:25:44;0.65;;;0.65;;
64678;SDS011;51094;53.864;27.676;2023-07-13T15:28:12;0.60;;;0.60;;
64678;SDS011;51094;53.864;27.676;2023-07-13T15:30:44;0.70;;;0.70;;
64678;SDS011;51094;53.864;27.676;2023-07-13T15:33:14;0.90;;;0.90;;
64678;SDS011;51094;53.864;27.676;2023-07-13T15:35:50;0.80;;;0.80;;